createdAt,value
2017-12-01T00:00:22.517Z,100424.91
2017-12-01T00:02:50.055Z,100422.71
2017-12-01T00:05:17.657Z,100426.68
2017-12-01T00:07:45.207Z,100423.50
2017-12-01T00:10:12.833Z,100428.84
2017-12-01T00:12:40.465Z,100433.64
2017-12-01T00:15:07.994Z,100435.83
2017-12-01T00:17:35.511Z,100437.11
2017-12-01T00:20:03.060Z,100441.52
2017-12-01T00:22:30.597Z,100445.53
2017-12-01T00:24:58.127Z,100452.95
2017-12-01T00:27:25.654Z,100446.70
2017-12-01T00:29:53.173Z,100444.96
2017-12-01T00:32:20.700Z,100445.77
2017-12-01T00:34:48.229Z,100444.47
2017-12-01T00:37:15.750Z,100460.77
2017-12-01T00:39:43.280Z,100455.94
2017-12-01T00:42:10.868Z,100465.22
2017-12-01T00:44:38.397Z,100464.29
2017-12-01T00:47:05.921Z,100470.02
2017-12-01T00:49:33.455Z,100473.97
2017-12-01T00:52:00.993Z,100473.97
2017-12-01T00:54:28.508Z,100469.48
2017-12-01T00:56:56.023Z,100471.32
2017-12-01T00:59:23.562Z,100473.93
2017-12-01T01:01:51.082Z,100471.77
2017-12-01T01:04:18.647Z,100477.57
2017-12-01T01:06:46.195Z,100484.58
2017-12-01T01:09:13.831Z,100487.64
2017-12-01T01:11:41.384Z,100490.29
2017-12-01T01:14:08.919Z,100491.58
2017-12-01T01:16:36.432Z,100494.27
2017-12-01T01:19:03.970Z,100500.88
2017-12-01T01:21:31.537Z,100504.38
2017-12-01T01:23:59.088Z,100512.28
2017-12-01T01:26:26.616Z,100506.61
2017-12-01T01:28:54.134Z,100507.97
2017-12-01T01:31:21.664Z,100515.37
2017-12-01T01:33:49.192Z,100519.84
2017-12-01T01:36:16.754Z,100518.02
2017-12-01T01:38:44.297Z,100524.58
2017-12-01T01:41:11.929Z,100525.06
2017-12-01T01:43:39.451Z,100526.88
2017-12-01T01:46:06.988Z,100522.87
2017-12-01T01:48:34.512Z,100521.57
2017-12-01T01:51:02.039Z,100525.13
2017-12-01T01:53:29.579Z,100524.63
2017-12-01T01:55:57.089Z,100527.26
2017-12-01T01:58:24.612Z,100534.72
2017-12-01T02:00:52.229Z,100534.67
2017-12-01T02:03:19.764Z,100539.21
2017-12-01T02:05:47.295Z,100538.73
2017-12-01T02:08:14.825Z,100546.20
2017-12-01T02:10:42.411Z,100543.98
2017-12-01T02:13:09.979Z,100544.47
2017-12-01T02:15:37.493Z,100545.37
2017-12-01T02:18:05.025Z,100553.69
2017-12-01T02:20:32.655Z,100544.88
2017-12-01T02:23:00.182Z,100541.66
2017-12-01T02:25:27.699Z,100553.08
2017-12-01T02:27:55.300Z,100553.98
2017-12-01T02:30:22.896Z,100560.36
2017-12-01T02:32:50.464Z,100560.70
2017-12-01T02:35:18.012Z,100561.55
2017-12-01T02:37:45.549Z,100561.52
2017-12-01T02:40:13.134Z,100560.66
2017-12-01T02:42:40.662Z,100565.08
2017-12-01T02:45:08.189Z,100563.69
2017-12-01T02:47:35.736Z,100564.09
2017-12-01T02:50:03.335Z,100569.92
2017-12-01T02:52:30.866Z,100569.48
2017-12-01T02:54:58.433Z,100569.92
2017-12-01T02:57:25.978Z,100573.45
2017-12-01T02:59:53.525Z,100569.05
2017-12-01T04:24:18.076Z,100630.91
2017-12-01T04:26:45.614Z,100626.92
2017-12-01T04:29:13.190Z,100633.55
2017-12-01T04:31:40.725Z,100640.50
2017-12-01T04:34:08.253Z,100631.20
2017-12-01T04:36:35.868Z,100647.09
2017-12-01T04:39:03.389Z,100646.66
2017-12-01T04:41:30.992Z,100651.48
2017-12-01T04:43:58.552Z,100652.35
2017-12-01T04:46:26.083Z,100662.02
2017-12-01T04:48:53.617Z,100662.47
2017-12-01T04:51:21.145Z,100659.73
2017-12-01T04:53:49.305Z,100668.99
2017-12-01T04:56:16.851Z,100670.72
2017-12-01T04:58:44.368Z,100676.89
2017-12-01T05:01:11.985Z,100675.16
2017-12-01T05:03:39.508Z,100680.91
2017-12-01T05:06:07.038Z,100680.87
2017-12-01T05:08:34.562Z,100683.05
2017-12-01T05:11:02.094Z,100689.73
2017-12-01T05:13:29.617Z,100691.06
2017-12-01T05:15:57.137Z,100697.66
2017-12-01T05:18:24.656Z,100701.16
2017-12-01T05:20:52.199Z,100690.10
2017-12-01T05:23:20.312Z,100703.36
2017-12-01T05:25:47.898Z,100708.13
2017-12-01T05:28:15.552Z,100715.22
2017-12-01T05:30:43.083Z,100714.34
2017-12-01T05:33:10.596Z,100712.98
2017-12-01T05:35:38.124Z,100714.35
2017-12-01T05:38:05.690Z,100720.02
2017-12-01T05:40:33.252Z,100718.27
2017-12-01T05:43:00.776Z,100718.69
2017-12-01T05:45:28.325Z,100717.78
2017-12-01T05:47:55.869Z,100717.41
2017-12-01T05:50:23.383Z,100720.52
2017-12-01T05:52:50.919Z,100727.16
2017-12-01T05:55:18.954Z,100728.89
2017-12-01T05:57:47.407Z,100738.17
2017-12-01T06:00:14.966Z,100741.69
2017-12-01T06:02:42.489Z,100743.49
2017-12-01T06:05:10.014Z,100753.19
2017-12-01T06:07:37.538Z,100754.12
2017-12-01T06:10:05.066Z,100755.42
2017-12-01T06:12:32.580Z,100759.37
2017-12-01T06:15:00.100Z,100759.82
2017-12-01T06:17:27.673Z,100756.75
2017-12-01T06:19:55.189Z,100765.53
2017-12-01T06:22:22.712Z,100762.91
2017-12-01T06:24:50.247Z,100766.44
2017-12-01T06:27:17.770Z,100775.31
2017-12-01T06:29:45.301Z,100769.58
2017-12-01T06:32:12.963Z,100785.43
2017-12-01T06:34:40.487Z,100782.78
2017-12-01T06:37:08.012Z,100783.27
2017-12-01T06:39:35.536Z,100780.59
2017-12-01T06:42:03.070Z,100783.70
2017-12-01T06:44:30.626Z,100785.91
2017-12-01T06:46:58.187Z,100792.61
2017-12-01T06:49:25.750Z,100792.16
2017-12-01T06:51:53.271Z,100796.08
2017-12-01T06:54:20.872Z,100797.41
2017-12-01T06:56:48.398Z,100787.25
2017-12-01T06:59:15.922Z,100789.05
2017-12-01T07:01:43.537Z,100800.93
2017-12-01T07:04:11.066Z,100802.22
2017-12-01T07:06:38.598Z,100808.44
2017-12-01T07:09:06.126Z,100813.68
2017-12-01T07:11:33.645Z,100815.44
2017-12-01T07:14:01.179Z,100828.21
2017-12-01T07:16:28.706Z,100830.41
2017-12-01T07:18:56.224Z,100827.76
2017-12-01T07:21:23.826Z,100831.22
2017-12-01T07:23:51.368Z,100835.60
2017-12-01T07:26:30.722Z,100828.97
2017-12-01T07:28:58.254Z,100833.37
2017-12-01T07:31:25.792Z,100836.83
2017-12-01T07:33:53.322Z,100845.64
2017-12-01T07:36:20.865Z,100841.58
2017-12-01T07:38:48.378Z,100839.30
2017-12-01T07:41:15.912Z,100846.36
2017-12-01T07:43:43.439Z,100851.63
2017-12-01T07:46:11.001Z,100858.13
2017-12-01T07:48:38.530Z,100863.78
2017-12-01T07:51:06.321Z,100858.44
2017-12-01T07:53:33.853Z,100861.43
2017-12-01T07:56:01.366Z,100865.30
2017-12-01T07:58:28.897Z,100869.55
2017-12-01T08:00:56.445Z,100872.09
2017-12-01T08:03:23.959Z,100880.35
2017-12-01T08:05:51.483Z,100885.97
2017-12-01T08:08:19.004Z,100888.92
2017-12-01T08:10:46.545Z,100904.16
2017-12-01T08:13:14.075Z,100898.81
2017-12-01T08:15:53.517Z,100908.89
2017-12-01T08:18:32.932Z,100904.74
2017-12-01T08:21:01.397Z,100907.58
2017-12-01T08:23:40.850Z,100919.55
2017-12-01T08:26:08.394Z,100923.53
2017-12-01T08:28:35.924Z,100933.61
2017-12-01T08:31:03.458Z,100935.27
2017-12-01T08:33:30.984Z,100942.84
2017-12-01T08:35:58.527Z,100947.16
2017-12-01T08:38:26.074Z,100944.09
2017-12-01T08:40:53.746Z,100949.25
2017-12-01T08:43:21.267Z,100946.57
2017-12-01T08:45:48.789Z,100950.92
2017-12-01T08:48:16.334Z,100948.16
2017-12-01T08:50:43.884Z,100954.73
2017-12-01T08:53:11.397Z,100954.40
2017-12-01T08:55:38.924Z,100952.25
2017-12-01T08:58:11.773Z,100965.38
2017-12-01T09:00:40.532Z,100967.51
2017-12-01T09:03:13.747Z,100971.48
2017-12-01T09:05:44.704Z,100978.21
2017-12-01T09:08:12.377Z,100977.94
2017-12-01T09:10:39.954Z,100982.87
2017-12-01T09:13:07.496Z,100986.88
2017-12-01T09:15:35.023Z,100989.60
2017-12-01T09:18:02.552Z,100992.77
2017-12-01T09:20:30.087Z,100993.25
2017-12-01T09:22:57.652Z,100997.66
2017-12-01T09:25:25.220Z,100998.59
2017-12-01T09:27:52.761Z,101002.02
2017-12-01T09:30:20.380Z,101001.77
2017-12-01T23:18:32.347Z,101765.65
2017-12-01T23:21:00.718Z,101772.66
2017-12-01T23:23:28.234Z,101766.91
2017-12-01T23:25:55.750Z,101770.00
2017-12-01T23:28:23.278Z,101774.88
2017-12-01T23:30:50.808Z,101772.23
2017-12-01T23:33:18.353Z,101771.74
2017-12-01T23:35:45.865Z,101778.41
2017-12-01T23:38:13.386Z,101764.67
2017-12-01T23:40:40.915Z,101770.42
2017-12-01T23:43:08.436Z,101775.75
2017-12-01T23:45:36.030Z,101775.72
2017-12-01T23:48:03.605Z,101770.00
2017-12-01T23:50:31.114Z,101777.94
2017-12-01T23:52:58.757Z,101778.83
2017-12-01T23:55:26.413Z,101786.36
2017-12-01T23:57:53.927Z,101783.27
